createdAt,value
2023-03-29T00:01:42.509Z,14.03
2023-03-29T00:04:13.942Z,14.15
2023-03-29T00:06:42.123Z,14.09
2023-03-29T00:09:10.054Z,14.21
2023-03-29T00:11:36.914Z,14.16
2023-03-29T00:14:03.801Z,14.21
2023-03-29T00:16:31.180Z,14.46
2023-03-29T00:18:58.390Z,14.26
2023-03-29T00:21:25.612Z,14.33
2023-03-29T00:23:52.392Z,14.29
2023-03-29T00:26:19.248Z,14.35
2023-03-29T00:28:46.135Z,14.37
2023-03-29T00:31:15.103Z,14.41
2023-03-29T00:33:42.527Z,14.42
2023-03-29T00:36:11.215Z,14.36
2023-03-29T00:38:38.740Z,14.33
2023-03-29T00:41:07.999Z,14.38
2023-03-29T00:43:57.737Z,14.57
2023-03-29T00:46:27.283Z,14.37
2023-03-29T00:48:58.805Z,14.68
2023-03-29T00:51:29.090Z,14.75
2023-03-29T00:54:00.997Z,14.76
2023-03-29T00:56:35.381Z,14.71
2023-03-29T00:59:07.212Z,14.57
2023-03-29T01:01:42.263Z,14.49
2023-03-29T01:04:19.471Z,14.53
2023-03-29T01:07:05.998Z,14.16
2023-03-29T01:09:35.602Z,14.52
2023-03-29T01:12:08.658Z,14.57
2023-03-29T01:14:43.768Z,14.54
2023-03-29T01:17:13.008Z,14.34
2023-03-29T01:19:50.295Z,14.56
2023-03-29T01:22:44.968Z,14.56
2023-03-29T01:25:34.133Z,14.63
2023-03-29T01:28:08.903Z,14.54
2023-03-29T01:30:41.849Z,14.37
2023-03-29T01:33:30.207Z,14.38
2023-03-29T01:36:05.020Z,14.23
2023-03-29T01:38:40.409Z,14.44
2023-03-29T01:41:08.017Z,14.60
2023-03-29T01:43:37.242Z,14.44
2023-03-29T01:46:43.806Z,14.43
2023-03-29T01:49:24.412Z,14.40
2023-03-29T01:52:01.365Z,14.46
2023-03-29T01:54:36.213Z,14.51
2023-03-29T01:57:05.863Z,14.52
2023-03-29T01:59:35.109Z,14.61
2023-03-29T02:02:05.911Z,14.75
2023-03-29T02:04:39.958Z,14.85
2023-03-29T02:07:09.473Z,14.87
2023-03-29T02:09:37.949Z,15.13
2023-03-29T02:12:07.146Z,14.87
2023-03-29T02:14:33.868Z,14.90
2023-03-29T02:17:15.358Z,15.00
2023-03-29T02:19:42.575Z,14.84
2023-03-29T02:22:12.790Z,14.93
2023-03-29T02:24:42.507Z,14.81
2023-03-29T02:27:09.284Z,14.70
2023-03-29T02:29:36.339Z,14.71
2023-03-29T02:32:13.415Z,14.89
2023-03-29T02:34:50.927Z,14.75
2023-03-29T02:37:20.282Z,14.56
2023-03-29T02:39:49.864Z,14.67
2023-03-29T02:42:20.589Z,14.81
2023-03-29T02:44:52.540Z,14.84
2023-03-29T02:47:38.331Z,14.79
2023-03-29T02:50:06.716Z,14.75
2023-03-29T02:52:41.495Z,14.85
2023-03-29T02:55:16.778Z,14.60
2023-03-29T02:57:44.077Z,14.68
2023-03-29T03:00:12.349Z,14.68
2023-03-29T03:02:39.151Z,14.60
2023-03-29T03:05:07.128Z,14.70
2023-03-29T03:07:33.902Z,14.55
2023-03-29T03:10:01.048Z,14.52
2023-03-29T03:12:27.900Z,14.39
2023-03-29T03:14:54.774Z,14.55
2023-03-29T03:17:23.158Z,14.27
2023-03-29T03:19:51.017Z,14.43
2023-03-29T03:22:17.734Z,14.43
2023-03-29T03:24:46.207Z,14.43
2023-03-29T03:27:13.715Z,14.59
2023-03-29T03:29:41.616Z,14.76
2023-03-29T03:32:08.471Z,14.73
2023-03-29T03:34:35.705Z,14.65
2023-03-29T03:37:02.421Z,14.50
2023-03-29T03:39:29.650Z,14.55
2023-03-29T03:41:56.439Z,14.72
2023-03-29T03:44:23.152Z,14.70
2023-03-29T03:46:49.841Z,14.71
2023-03-29T03:49:16.809Z,14.81
2023-03-29T03:51:45.574Z,14.81
2023-03-29T03:54:12.483Z,14.66
2023-03-29T03:56:39.657Z,14.81
2023-03-29T03:59:07.349Z,14.88
2023-03-29T04:01:35.539Z,14.74
2023-03-29T04:04:03.240Z,14.84
2023-03-29T04:06:30.759Z,14.73
2023-03-29T04:08:57.996Z,14.78
2023-03-29T04:11:24.750Z,14.75
2023-03-29T04:13:51.727Z,14.79
2023-03-29T04:16:18.476Z,14.75
2023-03-29T04:18:45.420Z,14.74
2023-03-29T04:21:12.229Z,15.01
2023-03-29T04:23:38.994Z,14.99
2023-03-29T04:26:06.642Z,14.87
2023-03-29T04:28:33.544Z,14.91
2023-03-29T04:31:00.580Z,14.85
2023-03-29T04:33:29.422Z,14.85
2023-03-29T04:35:57.050Z,14.77
2023-03-29T04:38:24.616Z,14.70
2023-03-29T04:40:51.437Z,14.69
2023-03-29T04:43:18.299Z,14.60
2023-03-29T04:45:45.612Z,14.59
2023-03-29T04:48:12.389Z,14.50
2023-03-29T04:50:39.229Z,14.70
2023-03-29T04:53:07.496Z,14.71
2023-03-29T04:55:34.279Z,14.49
2023-03-29T04:58:01.258Z,14.49
2023-03-29T05:00:28.739Z,14.53
2023-03-29T05:02:55.638Z,14.42
2023-03-29T05:05:22.734Z,14.42
2023-03-29T05:07:49.914Z,14.46
2023-03-29T05:10:17.212Z,14.54
2023-03-29T05:12:44.259Z,14.45
2023-03-29T05:15:11.224Z,14.43
2023-03-29T05:17:38.272Z,14.42
2023-03-29T05:20:12.879Z,14.44
2023-03-29T05:22:40.451Z,14.51
2023-03-29T05:25:08.469Z,14.46
2023-03-29T05:27:35.398Z,14.35
2023-03-29T05:30:02.239Z,14.41
2023-03-29T05:32:29.248Z,14.35
2023-03-29T05:34:56.080Z,14.35
2023-03-29T05:37:22.840Z,14.30
2023-03-29T05:39:49.835Z,14.32
2023-03-29T05:42:19.278Z,14.14
2023-03-29T05:44:46.044Z,14.15
2023-03-29T05:47:12.768Z,14.17
2023-03-29T05:49:39.653Z,14.10
2023-03-29T05:52:06.868Z,14.11
2023-03-29T05:54:33.672Z,14.20
2023-03-29T05:57:00.540Z,14.24
2023-03-29T05:59:29.850Z,14.17
2023-03-29T06:01:56.915Z,14.19
2023-03-29T06:04:24.704Z,14.24
2023-03-29T06:06:53.194Z,14.21
2023-03-29T06:09:20.049Z,14.23
2023-03-29T06:11:47.685Z,14.13
2023-03-29T06:14:15.458Z,14.18
2023-03-29T06:16:43.371Z,14.13
2023-03-29T06:19:10.090Z,14.20
2023-03-29T06:21:36.853Z,14.27
2023-03-29T06:24:04.263Z,14.22
2023-03-29T06:26:31.473Z,14.04
2023-03-29T06:28:58.409Z,14.11
2023-03-29T06:31:25.546Z,14.02
2023-03-29T06:33:52.350Z,13.94
2023-03-29T06:36:20.351Z,13.94
2023-03-29T06:38:47.299Z,13.84
2023-03-29T06:41:15.014Z,14.05
2023-03-29T06:43:42.057Z,14.18
2023-03-29T06:46:12.143Z,14.42
2023-03-29T06:48:40.299Z,14.39
2023-03-29T06:51:07.839Z,14.33
2023-03-29T06:53:35.089Z,14.39
2023-03-29T06:56:05.497Z,14.44
2023-03-29T06:58:32.306Z,14.32
2023-03-29T07:01:02.669Z,14.41
2023-03-29T07:03:30.085Z,14.34
2023-03-29T07:06:04.120Z,14.32
2023-03-29T07:08:35.322Z,14.27
2023-03-29T07:11:03.374Z,14.35
2023-03-29T07:13:30.801Z,14.46
2023-03-29T07:15:57.583Z,14.42
2023-03-29T07:18:24.319Z,14.25
2023-03-29T07:20:52.326Z,14.33
2023-03-29T07:23:19.478Z,14.19
2023-03-29T07:25:47.058Z,14.19
2023-03-29T07:28:13.920Z,14.13
2023-03-29T07:30:41.012Z,14.02
2023-03-29T07:33:09.590Z,14.05
2023-03-29T07:35:36.696Z,14.06
2023-03-29T07:38:04.054Z,14.10
2023-03-29T07:40:31.308Z,14.10
2023-03-29T07:42:59.056Z,13.92
2023-03-29T07:45:28.728Z,14.00
2023-03-29T07:47:58.021Z,14.00
2023-03-29T07:50:25.489Z,13.97
2023-03-29T07:52:52.258Z,14.04
2023-03-29T07:55:19.153Z,14.06
2023-03-29T07:57:45.935Z,14.08
2023-03-29T08:00:17.054Z,14.14
2023-03-29T08:02:44.810Z,14.18
2023-03-29T08:05:13.858Z,14.32
2023-03-29T08:07:43.288Z,14.34
2023-03-29T08:10:16.600Z,14.34
2023-03-29T08:12:44.858Z,14.33
2023-03-29T08:15:13.301Z,14.42
2023-03-29T08:17:40.335Z,14.34
2023-03-29T08:20:10.809Z,14.45
2023-03-29T08:22:38.117Z,14.52
2023-03-29T08:25:06.027Z,14.51
2023-03-29T08:27:33.208Z,14.71
2023-03-29T08:29:59.946Z,14.70
2023-03-29T08:32:26.781Z,14.78
2023-03-29T08:34:53.532Z,15.10
2023-03-29T08:37:20.705Z,14.89
2023-03-29T08:39:48.575Z,15.06
2023-03-29T08:42:34.464Z,15.22
2023-03-29T08:45:21.042Z,15.18
2023-03-29T08:48:06.563Z,15.09
2023-03-29T08:50:38.183Z,15.07
2023-03-29T08:53:12.573Z,15.30
2023-03-29T08:55:45.840Z,15.35
2023-03-29T08:58:17.411Z,15.32
2023-03-29T09:01:06.205Z,15.36
2023-03-29T09:03:38.650Z,15.49
2023-03-29T09:06:08.735Z,15.47
2023-03-29T09:08:40.369Z,15.63
2023-03-29T09:11:26.259Z,15.59
2023-03-29T09:14:14.792Z,15.73
2023-03-29T09:16:45.150Z,16.00
2023-03-29T09:19:28.702Z,16.03
2023-03-29T09:22:14.211Z,16.31
2023-03-29T09:24:54.198Z,16.38
2023-03-29T09:27:34.625Z,16.36
2023-03-29T09:30:30.884Z,16.47
2023-03-29T09:33:08.434Z,16.35
2023-03-29T09:35:43.547Z,16.35
2023-03-29T09:38:15.107Z,16.62
2023-03-29T09:40:53.392Z,16.76
2023-03-29T09:43:31.555Z,16.86
2023-03-29T09:46:01.866Z,16.82
2023-03-29T09:48:34.684Z,16.91
2023-03-29T09:51:03.358Z,16.88
2023-03-29T09:53:30.634Z,17.09
2023-03-29T09:55:57.646Z,17.10
2023-03-29T09:58:27.609Z,17.00
2023-03-29T10:00:58.355Z,17.03
2023-03-29T10:03:30.647Z,17.01
2023-03-29T10:06:00.390Z,17.19
2023-03-29T10:08:29.907Z,17.49
2023-03-29T10:11:03.800Z,18.21
2023-03-29T10:13:36.933Z,18.76
2023-03-29T10:16:09.370Z,18.84
2023-03-29T10:18:44.953Z,18.82
2023-03-29T10:21:16.830Z,18.72
2023-03-29T10:23:44.401Z,19.25
2023-03-29T10:26:33.341Z,19.53
2023-03-29T10:29:04.898Z,20.00
2023-03-29T10:31:38.271Z,20.31
2023-03-29T10:34:06.714Z,20.46
2023-03-29T10:36:34.223Z,20.82
2023-03-29T10:39:05.911Z,20.81
2023-03-29T10:41:35.628Z,21.14
2023-03-29T10:44:02.992Z,21.34
2023-03-29T10:46:32.688Z,21.49
2023-03-29T10:49:06.365Z,21.79
2023-03-29T10:51:34.577Z,21.74
2023-03-29T10:54:02.243Z,21.35
2023-03-29T10:56:43.240Z,21.09
2023-03-29T10:59:32.788Z,20.82
2023-03-29T11:02:17.231Z,21.04
2023-03-29T11:05:00.324Z,20.94
2023-03-29T11:07:27.287Z,21.27
2023-03-29T11:10:12.937Z,21.46
2023-03-29T11:13:08.607Z,21.32
2023-03-29T11:16:06.695Z,20.60
2023-03-29T11:19:14.604Z,20.53
2023-03-29T11:21:52.200Z,20.78
2023-03-29T11:24:34.523Z,20.55
2023-03-29T11:27:08.039Z,20.45
2023-03-29T11:30:03.454Z,20.29
2023-03-29T11:33:03.918Z,19.95
2023-03-29T11:35:42.801Z,19.60
2023-03-29T11:38:24.504Z,19.86
2023-03-29T11:41:14.957Z,19.64
2023-03-29T11:43:51.125Z,19.76
2023-03-29T11:46:39.244Z,20.04
2023-03-29T11:49:19.597Z,20.32
2023-03-29T11:52:10.536Z,20.56
2023-03-29T11:54:57.491Z,20.61
2023-03-29T11:57:38.413Z,20.82
2023-03-29T12:00:32.949Z,20.90
2023-03-29T12:03:24.492Z,20.99
2023-03-29T12:06:37.890Z,21.22
2023-03-29T12:09:25.669Z,20.87
2023-03-29T12:11:55.165Z,21.20
2023-03-29T12:14:28.159Z,21.42
2023-03-29T12:17:04.406Z,21.27
2023-03-29T12:19:43.519Z,21.07
2023-03-29T12:22:11.117Z,21.41
2023-03-29T12:24:41.960Z,21.03
2023-03-29T12:27:30.373Z,20.98
2023-03-29T12:30:18.420Z,21.17
2023-03-29T12:32:57.629Z,21.67
2023-03-29T12:35:43.041Z,21.90
2023-03-29T12:38:30.977Z,21.71
2023-03-29T12:41:00.763Z,21.81
2023-03-29T12:43:39.215Z,21.56
2023-03-29T12:46:11.492Z,21.36
2023-03-29T12:48:41.717Z,21.30
2023-03-29T12:51:14.010Z,21.26
2023-03-29T12:53:42.891Z,21.19
2023-03-29T12:56:16.967Z,20.99
2023-03-29T12:59:10.969Z,20.65
2023-03-29T13:01:41.537Z,20.65
2023-03-29T13:04:21.039Z,20.54
2023-03-29T13:06:47.897Z,20.47
2023-03-29T13:09:22.666Z,20.11
2023-03-29T13:11:54.674Z,19.90
2023-03-29T13:14:25.185Z,19.67
2023-03-29T13:16:52.207Z,19.49
2023-03-29T13:19:30.935Z,19.46
2023-03-29T13:22:16.368Z,19.46
2023-03-29T13:25:14.696Z,19.68
2023-03-29T13:28:01.377Z,19.53
2023-03-29T13:30:46.143Z,19.59
2023-03-29T13:33:33.963Z,19.44
2023-03-29T13:36:04.075Z,19.44
2023-03-29T13:38:35.644Z,19.33
2023-03-29T13:41:04.258Z,19.21
2023-03-29T13:43:42.197Z,19.40
2023-03-29T13:46:21.334Z,19.75
2023-03-29T13:48:55.332Z,19.76
2023-03-29T13:51:47.888Z,19.88
2023-03-29T13:54:42.004Z,20.04
2023-03-29T13:57:09.066Z,20.06
2023-03-29T14:00:00.659Z,19.93
2023-03-29T14:02:50.257Z,19.72
2023-03-29T14:05:21.813Z,19.84
2023-03-29T14:07:52.792Z,19.88
2023-03-29T14:10:26.260Z,20.00
2023-03-29T14:12:55.955Z,19.91
2023-03-29T14:15:26.068Z,19.73
2023-03-29T14:18:00.299Z,19.47
2023-03-29T14:20:28.802Z,19.42
2023-03-29T14:22:55.591Z,19.26
2023-03-29T14:25:24.488Z,19.21
2023-03-29T14:27:51.221Z,19.16
2023-03-29T14:30:20.320Z,19.11
2023-03-29T14:32:50.303Z,19.20
2023-03-29T14:35:17.661Z,19.29
2023-03-29T14:37:47.975Z,19.28
2023-03-29T14:40:24.606Z,19.10
2023-03-29T14:42:51.522Z,19.10
2023-03-29T14:45:23.360Z,19.61
2023-03-29T14:47:51.435Z,19.54
2023-03-29T14:50:30.986Z,19.51
2023-03-29T14:52:59.568Z,19.61
2023-03-29T14:55:27.424Z,19.49
2023-03-29T14:57:55.447Z,19.50
2023-03-29T15:00:30.305Z,19.25
2023-03-29T15:03:02.372Z,18.99
2023-03-29T15:05:33.995Z,19.01
2023-03-29T15:08:02.637Z,18.80
2023-03-29T15:10:33.537Z,18.76
2023-03-29T15:13:03.698Z,18.92
2023-03-29T15:15:33.036Z,19.08
2023-03-29T15:18:01.025Z,19.16
2023-03-29T15:20:35.679Z,19.29
2023-03-29T15:23:14.630Z,19.56
2023-03-29T15:25:53.139Z,19.29
2023-03-29T15:28:28.491Z,19.06
2023-03-29T15:31:12.493Z,19.04
2023-03-29T15:33:41.992Z,18.89
2023-03-29T15:36:11.263Z,19.03
2023-03-29T15:38:44.438Z,19.02
2023-03-29T15:41:13.766Z,19.40
2023-03-29T15:43:41.533Z,19.40
2023-03-29T15:46:10.878Z,18.92
2023-03-29T15:48:37.790Z,18.76
2023-03-29T15:51:06.794Z,18.54
2023-03-29T15:53:34.147Z,18.61
2023-03-29T15:56:04.145Z,18.54
2023-03-29T15:58:32.666Z,18.63
2023-03-29T16:01:11.225Z,18.81
2023-03-29T16:03:39.367Z,18.91
2023-03-29T16:06:06.754Z,19.10
2023-03-29T16:08:33.518Z,19.13
2023-03-29T16:11:00.506Z,19.11
2023-03-29T16:13:27.224Z,19.25
2023-03-29T16:15:54.053Z,19.56
2023-03-29T16:18:21.264Z,19.60
2023-03-29T16:20:48.161Z,19.40
2023-03-29T16:23:14.984Z,19.14
2023-03-29T16:25:41.805Z,19.00
2023-03-29T16:28:10.161Z,18.83
2023-03-29T16:30:38.464Z,18.76
2023-03-29T16:33:08.445Z,18.66
2023-03-29T16:35:38.589Z,18.92
2023-03-29T16:38:06.554Z,19.01
2023-03-29T16:40:33.482Z,19.13
2023-03-29T16:43:00.825Z,18.50
2023-03-29T16:45:27.559Z,18.68
2023-03-29T16:47:54.643Z,18.90
2023-03-29T16:50:22.154Z,18.66
2023-03-29T16:52:51.503Z,18.54
2023-03-29T16:55:19.172Z,18.46
2023-03-29T16:57:47.440Z,18.29
2023-03-29T17:00:17.067Z,18.21
2023-03-29T17:02:44.550Z,18.26
2023-03-29T17:05:12.578Z,18.18
2023-03-29T17:07:39.986Z,18.08
2023-03-29T17:10:08.367Z,18.09
2023-03-29T17:12:36.226Z,18.08
2023-03-29T17:15:04.402Z,18.14
2023-03-29T17:17:31.212Z,18.20
2023-03-29T17:19:58.217Z,18.06
2023-03-29T17:22:25.578Z,18.11
2023-03-29T17:24:52.589Z,17.96
2023-03-29T17:27:19.334Z,17.94
2023-03-29T17:29:46.078Z,17.92
2023-03-29T17:32:12.753Z,17.89
2023-03-29T17:34:39.523Z,17.78
2023-03-29T17:37:06.227Z,17.51
2023-03-29T17:39:37.299Z,17.13
2023-03-29T17:42:05.000Z,17.69
2023-03-29T17:44:33.409Z,17.55
2023-03-29T17:47:01.160Z,17.49
2023-03-29T17:49:28.393Z,17.30
2023-03-29T17:51:55.464Z,17.27
2023-03-29T17:54:22.202Z,17.20
2023-03-29T17:56:49.245Z,17.14
2023-03-29T17:59:16.719Z,17.10
2023-03-29T18:01:43.672Z,17.03
2023-03-29T18:04:12.206Z,16.97
2023-03-29T18:06:39.008Z,16.92
2023-03-29T18:09:06.008Z,16.84
2023-03-29T18:11:33.182Z,16.79
2023-03-29T18:14:01.132Z,16.63
2023-03-29T18:16:28.378Z,16.54
2023-03-29T18:18:55.250Z,16.38
2023-03-29T18:21:22.363Z,16.40
2023-03-29T18:23:50.062Z,16.11
2023-03-29T18:26:17.001Z,16.07
2023-03-29T18:28:47.383Z,16.23
2023-03-29T18:31:15.147Z,16.17
2023-03-29T18:33:42.031Z,16.07
2023-03-29T18:36:12.986Z,15.98
2023-03-29T18:38:43.472Z,15.81
2023-03-29T18:41:12.535Z,15.66
2023-03-29T18:43:39.937Z,15.42
2023-03-29T18:46:07.919Z,15.82
2023-03-29T18:48:41.993Z,15.70
2023-03-29T18:51:11.278Z,15.32
2023-03-29T18:53:38.973Z,15.59
2023-03-29T18:56:06.752Z,15.63
2023-03-29T18:58:33.860Z,15.64
2023-03-29T19:01:05.980Z,15.64
2023-03-29T19:03:34.759Z,15.12
2023-03-29T19:06:02.260Z,15.38
2023-03-29T19:08:29.285Z,15.49
2023-03-29T19:11:07.513Z,15.53
2023-03-29T19:13:35.140Z,15.45
2023-03-29T19:16:02.566Z,15.35
2023-03-29T19:18:29.789Z,15.32
2023-03-29T19:20:56.624Z,15.35
2023-03-29T19:23:27.244Z,15.33
2023-03-29T19:25:59.433Z,15.34
2023-03-29T19:28:27.411Z,15.24
2023-03-29T19:30:55.235Z,15.14
2023-03-29T19:33:22.169Z,14.74
2023-03-29T19:35:51.622Z,14.78
2023-03-29T19:38:19.375Z,14.85
2023-03-29T19:40:47.779Z,14.95
2023-03-29T19:43:16.791Z,14.70
2023-03-29T19:45:48.517Z,14.82
2023-03-29T19:48:22.397Z,14.71
2023-03-29T19:50:50.378Z,14.73
2023-03-29T19:53:17.253Z,14.65
2023-03-29T19:55:45.427Z,14.75
2023-03-29T19:58:13.326Z,14.57
2023-03-29T20:00:41.900Z,14.38
2023-03-29T20:03:10.181Z,14.43
2023-03-29T20:05:38.405Z,14.57
2023-03-29T20:08:05.237Z,14.59
2023-03-29T20:10:32.204Z,14.54
2023-03-29T20:12:59.157Z,14.61
2023-03-29T20:15:26.113Z,14.45
2023-03-29T20:17:54.480Z,14.47
2023-03-29T20:20:24.695Z,14.29
2023-03-29T20:22:54.115Z,14.44
2023-03-29T20:25:21.388Z,14.11
2023-03-29T20:27:49.725Z,14.33
2023-03-29T20:30:16.545Z,14.38
2023-03-29T20:32:43.440Z,14.22
2023-03-29T20:35:11.333Z,14.31
2023-03-29T20:37:38.085Z,14.33
2023-03-29T20:40:05.857Z,14.15
2023-03-29T20:42:34.665Z,14.09
2023-03-29T20:45:01.582Z,14.16
2023-03-29T20:47:29.576Z,14.12
2023-03-29T20:49:56.910Z,14.12
2023-03-29T20:52:24.463Z,14.08
2023-03-29T20:54:51.489Z,14.02
2023-03-29T20:57:20.989Z,14.09
2023-03-29T20:59:51.715Z,13.88
2023-03-29T21:02:21.707Z,13.89
2023-03-29T21:04:54.606Z,13.85
2023-03-29T21:07:21.888Z,13.86
2023-03-29T21:09:50.004Z,13.87
2023-03-29T21:12:17.670Z,13.81
2023-03-29T21:14:44.926Z,13.77
2023-03-29T21:17:11.795Z,13.75
2023-03-29T21:19:39.503Z,13.68
2023-03-29T21:22:06.858Z,13.63
2023-03-29T21:24:34.154Z,13.53
2023-03-29T21:27:01.039Z,13.36
2023-03-29T21:29:28.295Z,13.29
2023-03-29T21:31:55.320Z,13.18
2023-03-29T21:34:22.251Z,13.21
2023-03-29T21:36:49.143Z,13.03
2023-03-29T21:39:16.071Z,12.95
2023-03-29T21:41:42.933Z,12.96
2023-03-29T21:44:09.913Z,12.91
2023-03-29T21:46:36.750Z,12.82
2023-03-29T21:49:03.588Z,12.57
2023-03-29T21:51:30.502Z,12.54
2023-03-29T21:53:57.211Z,12.31
2023-03-29T21:56:23.956Z,12.14
2023-03-29T21:58:50.778Z,12.25
2023-03-29T22:01:17.659Z,12.25
2023-03-29T22:03:44.566Z,12.36
2023-03-29T22:06:13.570Z,12.20
2023-03-29T22:08:40.552Z,12.03
2023-03-29T22:11:11.112Z,12.12
2023-03-29T22:13:38.074Z,12.16
2023-03-29T22:16:05.637Z,12.25
2023-03-29T22:18:42.505Z,12.24
2023-03-29T22:21:13.866Z,12.23
2023-03-29T22:23:42.421Z,12.14
2023-03-29T22:26:11.358Z,12.06
2023-03-29T22:28:38.970Z,11.93
2023-03-29T22:31:07.979Z,12.00
2023-03-29T22:33:36.080Z,12.12
2023-03-29T22:36:11.684Z,11.94
2023-03-29T22:38:38.931Z,12.01
2023-03-29T22:41:06.308Z,12.03
2023-03-29T22:43:33.222Z,11.93
2023-03-29T22:46:00.178Z,11.97
2023-03-29T22:48:27.033Z,11.89
2023-03-29T22:50:53.791Z,11.81
2023-03-29T22:53:20.841Z,11.83
2023-03-29T22:55:47.578Z,11.80
2023-03-29T22:58:14.467Z,11.81
2023-03-29T23:00:41.210Z,11.80
2023-03-29T23:03:08.207Z,11.74
2023-03-29T23:05:35.010Z,11.70
2023-03-29T23:08:01.921Z,11.41
2023-03-29T23:10:30.544Z,11.58
2023-03-29T23:13:10.458Z,11.44
2023-03-29T23:15:47.411Z,11.33
2023-03-29T23:18:21.156Z,11.12
2023-03-29T23:20:49.110Z,11.14
2023-03-29T23:23:17.512Z,10.91
2023-03-29T23:25:48.420Z,11.18
2023-03-29T23:28:21.651Z,11.19
2023-03-29T23:30:57.100Z,10.95
2023-03-29T23:33:25.895Z,11.12
2023-03-29T23:35:53.263Z,11.15
2023-03-29T23:38:20.166Z,10.99
2023-03-29T23:41:02.225Z,10.92
2023-03-29T23:43:33.718Z,11.09
2023-03-29T23:46:05.810Z,11.28
2023-03-29T23:48:34.418Z,11.10
2023-03-29T23:51:02.349Z,10.91
2023-03-29T23:53:31.627Z,11.19
2023-03-29T23:56:04.418Z,11.30
2023-03-29T23:58:34.210Z,11.25
